createdAt,value
2017-11-15T00:01:00.133Z,0
2017-11-15T00:02:10.250Z,0
2017-11-15T00:03:20.393Z,0
2017-11-15T00:04:30.584Z,0
2017-11-15T00:05:40.712Z,0
2017-11-15T00:06:50.607Z,0
2017-11-15T00:08:00.471Z,0
2017-11-15T00:09:10.054Z,0
2017-11-15T00:10:20.229Z,0
2017-11-15T00:11:30.098Z,0
2017-11-15T00:12:40.221Z,0
2017-11-15T00:13:50.606Z,0
2017-11-15T00:15:00.466Z,0
2017-11-15T00:16:10.627Z,0
2017-11-15T00:17:20.751Z,0
2017-11-15T00:18:30.878Z,0
2017-11-15T00:19:41.024Z,0
2017-11-15T00:20:51.171Z,0
2017-11-15T00:22:01.296Z,0
2017-11-15T00:23:11.175Z,0
2017-11-15T00:24:21.304Z,0
2017-11-15T00:25:31.605Z,0
2017-11-15T00:26:41.896Z,0
2017-11-15T00:27:51.773Z,0
2017-11-15T00:29:01.954Z,0
2017-11-15T00:30:11.878Z,0
2017-11-15T00:31:21.808Z,0
2017-11-15T00:32:31.996Z,0
2017-11-15T00:33:42.421Z,0
2017-11-15T00:34:52.540Z,0
2017-11-15T00:36:02.663Z,0
2017-11-15T00:37:12.801Z,0
2017-11-15T00:38:22.990Z,0
2017-11-15T00:39:33.258Z,0
2017-11-15T00:40:42.889Z,0
2017-11-15T00:41:53.122Z,0
2017-11-15T00:43:03.446Z,0
2017-11-15T00:44:13.605Z,0
2017-11-15T00:45:23.787Z,0
2017-11-15T00:46:33.923Z,0
2017-11-15T00:47:44.047Z,0
2017-11-15T00:48:54.200Z,0
2017-11-15T00:50:04.062Z,0
2017-11-15T00:51:14.168Z,0
2017-11-15T00:52:24.501Z,0
2017-11-15T00:53:34.116Z,0
2017-11-15T00:54:44.729Z,0
2017-11-15T00:55:54.880Z,0
2017-11-15T00:57:04.746Z,0
2017-11-15T00:58:14.955Z,0
2017-11-15T00:59:25.067Z,0
2017-11-15T01:00:35.281Z,0
2017-11-15T01:01:45.171Z,0
2017-11-15T01:02:55.366Z,0
2017-11-15T01:04:05.498Z,0
2017-11-15T01:05:15.376Z,0
2017-11-15T01:06:25.566Z,0
2017-11-15T01:07:35.347Z,0
2017-11-15T01:08:45.468Z,0
2017-11-15T01:09:55.322Z,0
2017-11-15T01:11:05.448Z,0
2017-11-15T01:12:15.665Z,0
2017-11-15T01:13:25.446Z,0
2017-11-15T01:14:35.564Z,0
2017-11-15T01:15:45.431Z,0
2017-11-15T01:16:55.243Z,0
2017-11-15T01:18:05.552Z,0
2017-11-15T01:19:15.142Z,0
2017-11-15T01:20:25.253Z,0
2017-11-15T01:21:35.373Z,0
2017-11-15T01:22:45.536Z,0
2017-11-15T01:23:55.975Z,0
2017-11-15T01:25:06.166Z,0
2017-11-15T01:26:15.765Z,0
2017-11-15T01:27:25.769Z,0
2017-11-15T01:28:35.900Z,0
2017-11-15T01:29:45.758Z,0
2017-11-15T01:30:55.870Z,0
2017-11-15T01:32:05.465Z,0
2017-11-15T01:33:15.457Z,0
2017-11-15T01:34:25.552Z,0
2017-11-15T01:35:35.676Z,0
2017-11-15T01:36:45.528Z,0
2017-11-15T01:37:55.658Z,0
2017-11-15T01:39:05.924Z,0
2017-11-15T01:40:15.786Z,0
2017-11-15T01:41:25.927Z,0
2017-11-15T01:42:36.070Z,0
2017-11-15T01:43:46.246Z,0
2017-11-15T01:44:56.583Z,0
2017-11-15T01:46:06.448Z,0
2017-11-15T01:47:16.388Z,0
2017-11-15T01:48:26.550Z,0
2017-11-15T01:49:36.807Z,0
2017-11-15T01:50:46.984Z,0
2017-11-15T01:51:57.135Z,0
2017-11-15T01:53:06.982Z,0
2017-11-15T01:54:17.432Z,0
2017-11-15T01:55:27.772Z,0
2017-11-15T01:56:37.896Z,0
2017-11-15T01:57:47.522Z,0
2017-11-15T01:58:57.141Z,0
2017-11-15T02:00:07.020Z,0
2017-11-15T02:01:17.210Z,0
2017-11-15T02:02:26.921Z,0
2017-11-15T02:03:37.091Z,0
2017-11-15T02:04:47.205Z,0
2017-11-15T02:05:57.338Z,0
2017-11-15T02:07:07.192Z,0
2017-11-15T02:08:17.398Z,0
2017-11-15T02:09:27.538Z,0
2017-11-15T02:10:37.677Z,0
2017-11-15T02:11:47.991Z,0
2017-11-15T02:12:58.112Z,0
2017-11-15T02:14:07.599Z,0
2017-11-15T02:15:17.478Z,0
2017-11-15T02:16:27.620Z,0
2017-11-15T02:17:37.738Z,0
2017-11-15T02:18:47.867Z,0
2017-11-15T02:19:58.161Z,0
2017-11-15T02:21:07.395Z,0
2017-11-15T02:22:17.385Z,0
2017-11-15T02:23:27.494Z,0
2017-11-15T02:24:37.614Z,0
2017-11-15T02:25:47.900Z,0
2017-11-15T02:26:57.850Z,0
2017-11-15T02:28:07.968Z,0
2017-11-15T02:29:18.113Z,0
2017-11-15T02:30:27.867Z,0
2017-11-15T02:31:37.885Z,0
2017-11-15T02:32:48.002Z,0
2017-11-15T02:33:57.782Z,0
2017-11-15T02:35:06.801Z,0
2017-11-15T02:36:16.662Z,0
2017-11-15T02:37:26.537Z,0
2017-11-15T02:38:36.439Z,0
2017-11-15T02:39:46.031Z,0
2017-11-15T02:40:56.182Z,0
2017-11-15T02:42:05.947Z,0
2017-11-15T02:43:15.793Z,0
2017-11-15T02:44:25.378Z,0
2017-11-15T02:45:35.494Z,0
2017-11-15T02:46:45.603Z,0
2017-11-15T02:47:55.740Z,0
2017-11-15T02:49:05.390Z,0
2017-11-15T02:50:15.302Z,0
2017-11-15T02:51:25.406Z,0
2017-11-15T02:52:35.614Z,0
2017-11-15T02:53:45.496Z,0
2017-11-15T02:54:55.648Z,0
2017-11-15T02:56:05.842Z,0
2017-11-15T02:57:16.064Z,0
2017-11-15T02:58:26.066Z,0
2017-11-15T02:59:36.179Z,0
2017-11-15T03:00:46.315Z,0
2017-11-15T03:01:56.458Z,0
2017-11-15T03:03:06.087Z,0
2017-11-15T03:04:15.937Z,0
2017-11-15T03:05:26.102Z,0
2017-11-15T03:06:35.973Z,0
2017-11-15T03:07:45.895Z,0
2017-11-15T03:08:56.026Z,0
2017-11-15T03:10:06.143Z,0
2017-11-15T03:11:16.313Z,0
2017-11-15T03:12:26.163Z,0
2017-11-15T03:13:36.043Z,0
2017-11-15T03:14:45.917Z,0
2017-11-15T03:15:56.110Z,0
2017-11-15T03:17:05.957Z,0
2017-11-15T03:18:16.184Z,0
2017-11-15T03:19:26.114Z,0
2017-11-15T03:20:36.263Z,0
2017-11-15T03:21:46.365Z,0
2017-11-15T03:22:56.219Z,0
2017-11-15T03:24:06.070Z,0
2017-11-15T03:25:15.930Z,0
2017-11-15T03:26:25.947Z,0
2017-11-15T03:27:35.720Z,0
2017-11-15T03:28:45.867Z,0
2017-11-15T03:29:55.993Z,0
2017-11-15T03:31:06.132Z,0
2017-11-15T03:32:16.284Z,0
2017-11-15T03:33:26.391Z,0
2017-11-15T03:34:35.970Z,0
2017-11-15T03:35:45.847Z,0
2017-11-15T03:36:55.978Z,0
2017-11-15T03:38:06.325Z,0
2017-11-15T03:39:16.081Z,0
2017-11-15T03:40:26.217Z,0
2017-11-15T03:41:36.062Z,0
2017-11-15T03:42:45.899Z,0
2017-11-15T03:43:56.027Z,0
2017-11-15T03:45:06.426Z,0
2017-11-15T03:46:16.608Z,0
2017-11-15T03:47:26.723Z,0
2017-11-15T03:48:36.849Z,0
2017-11-15T03:49:46.955Z,0
2017-11-15T03:50:57.104Z,0
2017-11-15T03:52:07.221Z,0
2017-11-15T03:53:17.165Z,0
2017-11-15T03:54:26.796Z,0
2017-11-15T03:55:37.027Z,0
2017-11-15T03:56:47.191Z,0
2017-11-15T03:57:57.367Z,0
2017-11-15T03:59:07.236Z,0
2017-11-15T04:00:17.361Z,0
2017-11-15T04:01:27.548Z,0
2017-11-15T04:02:37.649Z,0
2017-11-15T04:03:47.813Z,0
2017-11-15T04:04:57.930Z,0
2017-11-15T04:06:08.058Z,0
2017-11-15T04:07:18.187Z,0
2017-11-15T04:08:28.059Z,0
2017-11-15T04:09:38.163Z,0
2017-11-15T04:10:48.320Z,0
2017-11-15T04:11:58.188Z,0
2017-11-15T04:13:08.393Z,0
2017-11-15T04:14:18.547Z,0
2017-11-15T04:15:28.822Z,0
2017-11-15T04:16:38.947Z,0
2017-11-15T04:17:49.071Z,0
2017-11-15T04:18:59.198Z,0
2017-11-15T04:20:09.314Z,0
2017-11-15T04:21:19.183Z,0
2017-11-15T04:22:29.587Z,0
2017-11-15T04:23:39.460Z,0
2017-11-15T04:24:49.587Z,0
2017-11-15T04:25:59.191Z,0
2017-11-15T04:27:08.929Z,0
2017-11-15T04:28:19.054Z,0
2017-11-15T04:29:29.204Z,0
2017-11-15T04:30:38.974Z,0
2017-11-15T04:31:48.911Z,0
2017-11-15T04:32:59.054Z,0
2017-11-15T04:34:09.192Z,0
2017-11-15T04:35:19.313Z,0
2017-11-15T04:36:29.238Z,0
2017-11-15T04:37:39.361Z,0
2017-11-15T04:38:49.310Z,0
2017-11-15T04:39:59.192Z,0
2017-11-15T04:41:09.057Z,0
2017-11-15T04:42:19.210Z,0
2017-11-15T04:43:29.329Z,0
2017-11-15T04:44:39.183Z,0
2017-11-15T04:45:49.030Z,0
2017-11-15T04:46:59.152Z,0
2017-11-15T04:48:09.129Z,0
2017-11-15T04:49:18.968Z,0
2017-11-15T04:50:29.093Z,0
2017-11-15T04:51:38.950Z,0
2017-11-15T04:52:49.082Z,0
2017-11-15T04:53:58.930Z,0
2017-11-15T04:55:08.423Z,0
2017-11-15T04:56:18.526Z,0
2017-11-15T04:57:28.109Z,0
2017-11-15T04:58:38.254Z,0
2017-11-15T04:59:48.147Z,0
2017-11-15T05:00:58.250Z,0
2017-11-15T05:02:08.368Z,0
2017-11-15T05:03:18.268Z,0
2017-11-15T05:04:28.128Z,0
2017-11-15T05:05:38.244Z,0
2017-11-15T05:06:48.375Z,0
2017-11-15T05:07:58.620Z,0
2017-11-15T05:09:08.795Z,0
2017-11-15T05:10:18.576Z,0
2017-11-15T05:11:28.705Z,0
2017-11-15T05:12:38.896Z,0
2017-11-15T05:13:49.105Z,0
2017-11-15T05:14:59.335Z,0
2017-11-15T05:16:09.206Z,0
2017-11-15T05:17:19.351Z,0
2017-11-15T05:18:29.213Z,0
2017-11-15T05:19:39.349Z,0
2017-11-15T05:20:49.483Z,0
2017-11-15T05:21:59.322Z,0
2017-11-15T05:23:09.441Z,0
2017-11-15T05:24:19.304Z,0
2017-11-15T05:25:29.261Z,0
2017-11-15T05:26:39.380Z,0
2017-11-15T05:27:49.522Z,0
2017-11-15T05:28:59.518Z,0
2017-11-15T05:30:09.740Z,0
2017-11-15T05:31:19.537Z,0
2017-11-15T05:32:29.669Z,0
2017-11-15T05:33:39.961Z,0
2017-11-15T05:34:50.170Z,0
2017-11-15T05:36:00.337Z,0
2017-11-15T05:37:10.472Z,0
2017-11-15T05:38:20.347Z,0
2017-11-15T05:39:30.487Z,0
2017-11-15T05:40:40.465Z,0
2017-11-15T05:41:50.409Z,0
2017-11-15T05:43:00.279Z,0
2017-11-15T05:44:10.720Z,0
2017-11-15T05:45:20.859Z,0
2017-11-15T05:46:31.007Z,0
2017-11-15T05:47:41.169Z,0
2017-11-15T05:48:51.363Z,0
2017-11-15T05:50:01.245Z,0
2017-11-15T05:51:10.738Z,0
2017-11-15T05:52:20.887Z,0
2017-11-15T05:53:31.002Z,0
2017-11-15T05:54:40.878Z,0
2017-11-15T05:55:50.823Z,0
2017-11-15T05:57:01.095Z,0
2017-11-15T05:58:11.214Z,0
2017-11-15T05:59:21.416Z,0
2017-11-15T06:00:31.694Z,0
2017-11-15T06:01:41.569Z,0
2017-11-15T06:02:51.187Z,0
2017-11-15T06:04:00.987Z,0
2017-11-15T06:05:11.199Z,0
2017-11-15T06:06:20.961Z,0
2017-11-15T06:07:31.213Z,0
2017-11-15T06:08:41.338Z,0
2017-11-15T06:09:51.069Z,0
2017-11-15T06:11:01.462Z,0
2017-11-15T06:12:11.491Z,0
2017-11-15T06:13:21.517Z,0
2017-11-15T06:14:31.998Z,0
2017-11-15T06:15:42.327Z,0
2017-11-15T06:16:53.073Z,0
2017-11-15T06:18:03.395Z,0
2017-11-15T06:19:13.937Z,0
2017-11-15T06:20:24.712Z,0
2017-11-15T06:21:34.275Z,0
2017-11-15T06:22:44.340Z,0
2017-11-15T06:23:54.833Z,0
2017-11-15T06:25:04.983Z,0
2017-11-15T06:26:15.081Z,0
2017-11-15T06:27:25.534Z,0
2017-11-15T06:28:35.808Z,0
2017-11-15T06:29:46.163Z,0
2017-11-15T06:30:56.961Z,0
2017-11-15T06:32:07.470Z,0
2017-11-15T06:33:17.857Z,5
2017-11-15T06:34:27.928Z,5
2017-11-15T06:35:38.260Z,5
2017-11-15T06:36:48.341Z,5
2017-11-15T06:37:58.522Z,5
2017-11-15T06:39:08.645Z,5
2017-11-15T06:40:18.405Z,10
2017-11-15T06:41:28.552Z,10
2017-11-15T06:42:38.751Z,10
2017-11-15T06:43:49.199Z,10
2017-11-15T06:44:59.317Z,10
2017-11-15T06:46:09.439Z,10
2017-11-15T06:47:19.561Z,10
2017-11-15T06:48:29.681Z,15
2017-11-15T06:49:40.040Z,15
2017-11-15T06:50:49.926Z,15
2017-11-15T06:52:00.042Z,15
2017-11-15T06:53:09.567Z,15
2017-11-15T06:54:19.704Z,15
2017-11-15T06:55:30.065Z,15
2017-11-15T06:56:40.254Z,20
2017-11-15T06:57:50.361Z,20
2017-11-15T06:59:00.213Z,20
2017-11-15T07:00:10.429Z,20
2017-11-15T07:01:20.794Z,20
2017-11-15T07:02:30.311Z,25
2017-11-15T07:03:40.421Z,20
2017-11-15T07:04:50.547Z,20
2017-11-15T07:06:00.656Z,15
2017-11-15T07:07:11.003Z,15
2017-11-15T07:08:21.182Z,20
2017-11-15T07:09:31.028Z,25
2017-11-15T07:10:40.615Z,25
2017-11-15T07:11:50.461Z,30
2017-11-15T07:13:00.625Z,30
2017-11-15T07:14:10.223Z,30
2017-11-15T07:15:20.437Z,30
2017-11-15T07:16:30.143Z,35
2017-11-15T07:17:40.019Z,40
2017-11-15T07:18:50.146Z,40
2017-11-15T07:20:00.050Z,40
2017-11-15T07:21:09.971Z,40
2017-11-15T07:22:20.119Z,40
2017-11-15T07:23:30.259Z,40
2017-11-15T07:24:40.125Z,45
2017-11-15T07:25:50.564Z,55
2017-11-15T07:27:00.204Z,60
2017-11-15T07:28:10.558Z,60
2017-11-15T07:29:20.818Z,70
2017-11-15T07:30:31.006Z,75
2017-11-15T07:31:40.968Z,75
2017-11-15T07:32:50.831Z,80
2017-11-15T07:34:00.700Z,80
2017-11-15T07:35:10.872Z,80
2017-11-15T07:36:20.786Z,75
2017-11-15T07:37:30.707Z,70
2017-11-15T07:38:40.885Z,65
2017-11-15T07:39:50.840Z,65
2017-11-15T07:41:01.037Z,65
2017-11-15T07:42:11.256Z,70
2017-11-15T07:43:21.454Z,80
2017-11-15T07:44:31.511Z,85
2017-11-15T07:45:41.636Z,90
2017-11-15T07:46:51.785Z,90
2017-11-15T07:48:01.028Z,90
2017-11-15T07:49:10.873Z,90
2017-11-15T07:50:20.989Z,90
2017-11-15T07:51:30.835Z,85
2017-11-15T07:52:40.953Z,85
2017-11-15T07:53:50.569Z,85
2017-11-15T07:55:00.503Z,95
2017-11-15T07:56:10.721Z,100
2017-11-15T07:57:20.853Z,100
2017-11-15T07:58:30.720Z,100
2017-11-15T07:59:40.485Z,100
2017-11-15T08:00:50.590Z,105
2017-11-15T08:02:00.737Z,110
2017-11-15T08:03:10.861Z,105
2017-11-15T08:04:20.704Z,100
2017-11-15T08:05:30.852Z,85
2017-11-15T08:06:41.108Z,70
2017-11-15T08:07:51.028Z,60
2017-11-15T08:09:00.893Z,55
2017-11-15T08:10:10.737Z,55
2017-11-15T08:11:20.988Z,55
2017-11-15T08:12:31.235Z,55
2017-11-15T08:13:41.129Z,55
2017-11-15T08:14:50.685Z,50
2017-11-15T08:16:00.550Z,55
2017-11-15T08:17:10.661Z,60
2017-11-15T08:18:20.795Z,60
2017-11-15T08:19:30.919Z,55
2017-11-15T08:20:41.024Z,45
2017-11-15T08:21:50.916Z,35
2017-11-15T08:23:00.790Z,30
2017-11-15T08:24:10.116Z,30
2017-11-15T08:25:20.239Z,35
2017-11-15T08:26:29.996Z,30
2017-11-15T08:27:40.113Z,30
2017-11-15T08:28:49.963Z,30
2017-11-15T08:30:00.103Z,30
2017-11-15T08:31:09.962Z,25
2017-11-15T08:32:19.637Z,25
2017-11-15T08:33:29.775Z,25
2017-11-15T08:34:39.379Z,25
2017-11-15T08:35:49.712Z,25
2017-11-15T08:36:59.662Z,25
2017-11-15T08:38:08.911Z,30
2017-11-15T08:39:18.517Z,35
2017-11-15T08:40:28.679Z,40
2017-11-15T08:41:38.969Z,45
2017-11-15T08:42:48.718Z,45
2017-11-15T08:43:58.849Z,40
2017-11-15T08:45:08.719Z,40
2017-11-15T08:46:18.551Z,50
2017-11-15T08:47:28.672Z,60
2017-11-15T08:48:38.226Z,60
2017-11-15T08:49:48.367Z,60
2017-11-15T08:50:58.007Z,55
2017-11-15T08:52:08.127Z,60
2017-11-15T08:53:18.289Z,60
2017-11-15T08:54:28.463Z,60
2017-11-15T08:55:38.661Z,60
2017-11-15T08:56:48.855Z,60
2017-11-15T08:57:59.187Z,60
2017-11-15T08:59:09.416Z,55
2017-11-15T09:00:19.558Z,55
2017-11-15T09:01:29.794Z,55
2017-11-15T09:02:39.913Z,60
2017-11-15T09:03:49.856Z,65
2017-11-15T09:04:59.618Z,75
2017-11-15T09:06:09.778Z,80
2017-11-15T09:07:19.973Z,85
2017-11-15T09:08:30.116Z,90
2017-11-15T09:09:40.037Z,110
2017-11-15T09:10:50.173Z,120
2017-11-15T09:12:00.053Z,125
2017-11-15T09:13:09.805Z,130
2017-11-15T09:14:19.494Z,140
2017-11-15T09:15:29.611Z,140
2017-11-15T09:16:39.775Z,145
2017-11-15T09:17:49.952Z,160
2017-11-15T09:18:59.806Z,175
2017-11-15T09:20:09.956Z,195
2017-11-15T09:21:20.183Z,225
2017-11-15T09:22:30.273Z,245
2017-11-15T09:23:39.566Z,255
2017-11-15T09:24:49.723Z,225
2017-11-15T09:25:59.594Z,225
2017-11-15T09:27:09.834Z,265
2017-11-15T09:28:20.001Z,340
2017-11-15T09:29:30.250Z,380
2017-11-15T09:30:40.036Z,360
2017-11-15T09:31:49.910Z,325
2017-11-15T09:33:00.016Z,300
2017-11-15T09:34:10.145Z,305
2017-11-15T09:35:20.299Z,310
2017-11-15T09:36:30.565Z,320
2017-11-15T09:37:40.389Z,325
2017-11-15T09:38:50.504Z,320
2017-11-15T09:40:00.667Z,285
2017-11-15T09:41:10.831Z,270
2017-11-15T09:42:20.580Z,235
2017-11-15T09:43:30.711Z,210
2017-11-15T09:44:40.571Z,220
2017-11-15T09:45:50.795Z,225
2017-11-15T09:47:00.958Z,225
2017-11-15T09:48:11.128Z,205
2017-11-15T09:49:20.916Z,185
2017-11-15T09:50:31.055Z,200
2017-11-15T09:51:41.165Z,200
2017-11-15T09:52:50.780Z,210
2017-11-15T09:54:00.957Z,225
2017-11-15T09:55:10.852Z,230
2017-11-15T09:56:20.550Z,215
2017-11-15T09:57:30.432Z,220
2017-11-15T09:58:40.122Z,265
2017-11-15T09:59:50.256Z,315
2017-11-15T10:01:00.373Z,305
2017-11-15T10:02:10.502Z,270
2017-11-15T10:03:20.190Z,275
2017-11-15T10:04:30.398Z,235
2017-11-15T10:05:40.690Z,300
2017-11-15T10:06:50.648Z,225
2017-11-15T10:08:00.768Z,165
2017-11-15T10:09:10.389Z,140
2017-11-15T10:10:20.431Z,115
2017-11-15T10:11:30.357Z,110
2017-11-15T10:12:40.365Z,115
2017-11-15T10:13:50.235Z,130
2017-11-15T10:15:00.352Z,145
2017-11-15T10:16:10.481Z,155
2017-11-15T10:17:20.405Z,170
2017-11-15T10:18:30.600Z,200
2017-11-15T10:19:40.468Z,225
2017-11-15T10:20:50.614Z,285
2017-11-15T10:22:00.438Z,350
2017-11-15T10:23:10.644Z,310
2017-11-15T10:24:20.625Z,200
2017-11-15T10:25:30.785Z,190
2017-11-15T10:26:40.887Z,245
2017-11-15T10:27:51.053Z,235
2017-11-15T10:29:01.204Z,230
2017-11-15T10:30:11.329Z,245
2017-11-15T10:31:21.496Z,210
2017-11-15T10:32:31.343Z,245
2017-11-15T10:33:41.726Z,255
2017-11-15T10:34:51.647Z,280
2017-11-15T10:36:01.511Z,285
2017-11-15T10:37:11.019Z,290
2017-11-15T10:38:21.145Z,325
2017-11-15T10:40:03.199Z,360
2017-11-15T10:41:13.382Z,375
2017-11-15T10:42:23.206Z,390
2017-11-15T10:43:33.023Z,415
2017-11-15T10:44:42.812Z,420
2017-11-15T10:45:52.940Z,415
2017-11-15T10:47:02.535Z,400
2017-11-15T10:48:12.661Z,370
2017-11-15T10:49:22.893Z,350
2017-11-15T10:50:33.073Z,335
2017-11-15T10:51:43.441Z,320
2017-11-15T10:52:53.581Z,360
2017-11-15T10:54:03.118Z,385
2017-11-15T10:55:13.277Z,360
2017-11-15T10:56:23.297Z,305
2017-11-15T10:57:33.481Z,220
2017-11-15T10:58:43.349Z,225
2017-11-15T10:59:53.610Z,220
2017-11-15T11:01:03.602Z,325
2017-11-15T11:02:13.764Z,250
2017-11-15T11:03:23.629Z,185
2017-11-15T11:04:33.514Z,235
2017-11-15T11:05:43.649Z,195
2017-11-15T11:06:53.820Z,170
2017-11-15T11:08:04.010Z,175
2017-11-15T11:09:13.887Z,170
2017-11-15T11:10:24.832Z,165
2017-11-15T11:11:34.680Z,160
2017-11-15T11:12:44.644Z,145
2017-11-15T11:13:54.516Z,125
2017-11-15T11:15:04.800Z,110
2017-11-15T11:16:15.070Z,100
2017-11-15T11:17:25.013Z,100
2017-11-15T11:18:34.663Z,105
2017-11-15T11:19:44.821Z,100
2017-11-15T11:20:54.983Z,110
2017-11-15T11:22:05.155Z,120
2017-11-15T11:23:15.299Z,140
2017-11-15T11:24:25.168Z,160
2017-11-15T11:25:35.314Z,160
2017-11-15T11:26:45.657Z,170
2017-11-15T11:27:55.833Z,165
2017-11-15T11:29:06.033Z,145
2017-11-15T11:30:15.961Z,125
2017-11-15T11:31:26.107Z,105
2017-11-15T11:32:36.238Z,100
2017-11-15T11:33:46.428Z,100
2017-11-15T11:34:56.600Z,100
2017-11-15T11:36:06.863Z,105
2017-11-15T11:37:16.811Z,115
2017-11-15T11:38:26.964Z,115
2017-11-15T11:39:36.634Z,120
2017-11-15T11:40:47.035Z,115
2017-11-15T11:41:56.940Z,115
2017-11-15T11:43:07.064Z,120
2017-11-15T11:44:17.186Z,130
2017-11-15T11:45:26.965Z,130
2017-11-15T11:46:36.870Z,140
2017-11-15T11:47:47.046Z,145
2017-11-15T11:48:57.234Z,140
2017-11-15T11:50:06.854Z,150
2017-11-15T11:51:16.995Z,155
2017-11-15T11:52:27.123Z,145
2017-11-15T11:53:36.981Z,170
2017-11-15T11:54:47.107Z,170
2017-11-15T11:55:56.988Z,150
2017-11-15T11:57:06.640Z,135
2017-11-15T11:58:16.533Z,140
2017-11-15T11:59:26.696Z,135
2017-11-15T12:00:36.858Z,125
2017-11-15T12:01:46.760Z,120
2017-11-15T12:02:56.892Z,125
2017-11-15T12:04:06.673Z,115
2017-11-15T12:05:16.500Z,105
2017-11-15T12:06:26.633Z,115
2017-11-15T12:07:36.460Z,120
2017-11-15T12:08:46.629Z,110
2017-11-15T12:09:56.874Z,100
2017-11-15T12:11:06.776Z,95
2017-11-15T12:12:16.935Z,90
2017-11-15T12:13:27.117Z,85
2017-11-15T12:14:37.276Z,85
2017-11-15T12:15:47.479Z,95
2017-11-15T12:16:57.613Z,100
2017-11-15T12:18:07.742Z,100
2017-11-15T12:19:17.877Z,90
2017-11-15T12:20:27.769Z,90
2017-11-15T12:21:37.894Z,100
2017-11-15T12:22:47.787Z,105
2017-11-15T12:23:57.157Z,115
2017-11-15T12:25:06.778Z,110
2017-11-15T12:26:17.054Z,100
2017-11-15T12:27:26.977Z,90
2017-11-15T12:28:36.843Z,90
2017-11-15T12:29:46.708Z,85
2017-11-15T12:30:56.351Z,85
2017-11-15T12:32:06.227Z,85
2017-11-15T12:33:16.153Z,80
2017-11-15T12:34:26.076Z,95
2017-11-15T12:35:36.020Z,105
2017-11-15T12:36:45.957Z,110
2017-11-15T12:37:56.114Z,115
2017-11-15T12:39:06.239Z,115
2017-11-15T12:40:16.403Z,120
2017-11-15T12:41:26.618Z,120
2017-11-15T12:42:37.045Z,120
2017-11-15T12:43:47.238Z,125
2017-11-15T12:44:57.352Z,125
2017-11-15T12:46:07.640Z,125
2017-11-15T12:47:17.888Z,120
2017-11-15T12:48:28.056Z,105
2017-11-15T12:49:38.257Z,95
2017-11-15T12:50:48.406Z,95
2017-11-15T12:51:58.626Z,95
2017-11-15T12:53:08.512Z,90
2017-11-15T12:54:18.373Z,80
2017-11-15T12:55:28.487Z,70
2017-11-15T12:56:38.251Z,65
2017-11-15T12:57:48.430Z,65
2017-11-15T12:58:58.547Z,65
2017-11-15T13:00:08.729Z,65
2017-11-15T13:01:18.876Z,70
2017-11-15T13:02:29.022Z,65
2017-11-15T13:03:39.200Z,65
2017-11-15T13:04:49.095Z,60
2017-11-15T13:05:59.317Z,55
2017-11-15T13:07:08.854Z,55
2017-11-15T13:08:18.802Z,50
2017-11-15T13:09:28.984Z,55
2017-11-15T13:10:38.904Z,55
2017-11-15T13:12:20.768Z,60
2017-11-15T13:13:30.959Z,60
2017-11-15T13:14:40.594Z,60
2017-11-15T13:15:50.482Z,55
2017-11-15T13:17:00.601Z,50
2017-11-15T13:18:10.481Z,50
2017-11-15T13:19:20.371Z,50
2017-11-15T13:20:30.292Z,50
2017-11-15T13:21:39.798Z,45
2017-11-15T13:22:49.761Z,50
2017-11-15T13:23:59.608Z,50
2017-11-15T13:25:09.458Z,50
2017-11-15T13:26:19.625Z,50
2017-11-15T13:27:29.770Z,45
2017-11-15T13:28:39.557Z,45
2017-11-15T13:29:49.447Z,45
2017-11-15T13:30:59.561Z,45
2017-11-15T13:32:09.734Z,45
2017-11-15T13:33:19.337Z,45
2017-11-15T13:34:29.208Z,40
2017-11-15T13:35:39.358Z,45
2017-11-15T13:36:49.636Z,45
2017-11-15T13:37:59.436Z,50
2017-11-15T13:39:09.575Z,50
2017-11-15T13:40:19.919Z,45
2017-11-15T13:41:30.097Z,40
2017-11-15T13:42:39.700Z,40
2017-11-15T13:43:50.103Z,35
2017-11-15T13:45:00.307Z,35
2017-11-15T13:46:10.446Z,35
2017-11-15T13:47:20.324Z,35
2017-11-15T13:48:30.071Z,35
2017-11-15T13:49:40.247Z,35
2017-11-15T13:50:50.116Z,35
2017-11-15T13:52:00.045Z,40
2017-11-15T13:53:10.173Z,40
2017-11-15T13:54:20.476Z,45
2017-11-15T13:55:30.639Z,50
2017-11-15T13:56:40.760Z,45
2017-11-15T13:57:51.048Z,45
2017-11-15T13:59:01.009Z,45
2017-11-15T14:00:11.136Z,45
2017-11-15T14:01:21.011Z,40
2017-11-15T14:02:31.168Z,35
2017-11-15T14:03:41.502Z,35
2017-11-15T14:04:51.370Z,30
2017-11-15T14:06:00.883Z,30
2017-11-15T14:07:11.010Z,30
2017-11-15T14:08:20.889Z,25
2017-11-15T14:09:30.531Z,25
2017-11-15T14:10:40.669Z,25
2017-11-15T14:11:50.814Z,20
2017-11-15T14:13:00.593Z,20
2017-11-15T14:14:10.066Z,20
2017-11-15T14:15:19.664Z,20
2017-11-15T14:16:29.222Z,20
2017-11-15T14:17:39.349Z,20
2017-11-15T14:18:49.826Z,20
2017-11-15T14:19:59.977Z,20
2017-11-15T14:21:09.883Z,20
2017-11-15T14:22:19.743Z,20
2017-11-15T14:23:29.885Z,20
2017-11-15T14:24:39.855Z,20
2017-11-15T14:25:50.137Z,20
2017-11-15T14:27:00.004Z,25
2017-11-15T14:28:10.346Z,25
2017-11-15T14:29:20.256Z,25
2017-11-15T14:30:30.434Z,25
2017-11-15T14:31:40.573Z,20
2017-11-15T14:32:50.777Z,20
2017-11-15T14:34:00.670Z,20
2017-11-15T14:35:10.533Z,20
2017-11-15T14:36:20.666Z,20
2017-11-15T14:37:30.883Z,20
2017-11-15T14:38:40.412Z,20
2017-11-15T14:39:50.322Z,20
2017-11-15T14:40:59.959Z,20
2017-11-15T14:42:09.849Z,20
2017-11-15T14:43:19.732Z,20
2017-11-15T14:44:29.921Z,20
2017-11-15T14:45:40.049Z,25
2017-11-15T14:46:49.936Z,25
2017-11-15T14:47:59.792Z,25
2017-11-15T14:49:10.142Z,25
2017-11-15T14:50:20.058Z,25
2017-11-15T14:51:29.957Z,25
2017-11-15T14:52:40.157Z,25
2017-11-15T14:53:50.028Z,25
2017-11-15T14:55:00.180Z,20
2017-11-15T14:56:10.060Z,20
2017-11-15T14:57:19.924Z,20
2017-11-15T14:58:30.057Z,20
2017-11-15T14:59:40.055Z,20
2017-11-15T15:00:50.252Z,15
2017-11-15T15:02:00.358Z,15
2017-11-15T15:03:09.857Z,15
2017-11-15T15:04:20.209Z,10
2017-11-15T15:05:30.103Z,10
2017-11-15T15:06:39.990Z,10
2017-11-15T15:07:50.147Z,10
2017-11-15T15:09:00.288Z,5
2017-11-15T15:10:10.212Z,5
2017-11-15T15:11:20.461Z,5
2017-11-15T15:12:30.362Z,5
2017-11-15T15:13:40.273Z,5
2017-11-15T15:14:49.907Z,5
2017-11-15T15:16:00.050Z,5
2017-11-15T15:17:10.307Z,5
2017-11-15T15:18:20.490Z,0
2017-11-15T15:19:31.342Z,0
2017-11-15T15:20:41.470Z,0
2017-11-15T15:21:51.622Z,0
2017-11-15T15:23:01.484Z,0
2017-11-15T15:24:11.620Z,0
2017-11-15T15:25:21.757Z,0
2017-11-15T15:26:31.902Z,0
2017-11-15T15:27:42.088Z,0
2017-11-15T15:28:52.397Z,0
2017-11-15T15:30:02.608Z,0
2017-11-15T15:31:12.466Z,0
2017-11-15T15:32:22.617Z,0
2017-11-15T15:33:32.767Z,0
2017-11-15T15:34:42.909Z,0
2017-11-15T15:35:53.081Z,0
2017-11-15T15:37:03.268Z,0
2017-11-15T15:38:13.185Z,0
2017-11-15T15:39:22.900Z,0
2017-11-15T15:40:33.147Z,0
2017-11-15T15:41:43.316Z,0
2017-11-15T15:42:53.410Z,0
2017-11-15T15:44:03.615Z,0
2017-11-15T15:45:13.511Z,0
2017-11-15T15:46:23.438Z,0
2017-11-15T15:47:33.566Z,0
2017-11-15T15:48:43.751Z,0
2017-11-15T15:49:53.894Z,0
2017-11-15T15:51:03.774Z,0
2017-11-15T15:52:13.927Z,0
2017-11-15T15:53:24.122Z,0
2017-11-15T15:54:33.944Z,0
2017-11-15T15:55:43.810Z,0
2017-11-15T15:56:53.959Z,0
2017-11-15T15:58:03.889Z,0
2017-11-15T15:59:13.412Z,0
2017-11-15T16:00:23.069Z,0
2017-11-15T16:01:33.211Z,0
2017-11-15T16:02:43.368Z,0
2017-11-15T16:03:53.519Z,0
2017-11-15T16:05:03.742Z,0
2017-11-15T16:06:13.251Z,0
2017-11-15T16:07:23.147Z,0
2017-11-15T16:08:33.271Z,0
2017-11-15T16:09:43.142Z,0
2017-11-15T16:10:53.294Z,0
2017-11-15T16:12:03.436Z,0
2017-11-15T16:13:13.599Z,0
2017-11-15T16:14:23.467Z,0
2017-11-15T16:15:33.305Z,0
2017-11-15T16:16:43.536Z,0
2017-11-15T16:17:53.908Z,0
2017-11-15T16:19:04.163Z,0
2017-11-15T16:20:14.353Z,0
2017-11-15T16:21:24.557Z,0
2017-11-15T16:22:34.353Z,0
2017-11-15T16:23:44.042Z,0
2017-11-15T16:24:54.211Z,0
2017-11-15T16:26:04.167Z,0
2017-11-15T16:27:14.056Z,0
2017-11-15T16:28:24.201Z,0
2017-11-15T16:29:34.349Z,0
2017-11-15T16:30:44.292Z,0
2017-11-15T16:31:54.221Z,0
2017-11-15T16:33:04.385Z,0
2017-11-15T16:34:14.555Z,0
2017-11-15T16:35:24.491Z,0
2017-11-15T16:36:33.861Z,0
2017-11-15T16:37:43.776Z,0
2017-11-15T16:38:53.694Z,0
2017-11-15T16:40:03.834Z,0
2017-11-15T16:41:13.968Z,0
2017-11-15T16:42:24.323Z,0
2017-11-15T16:43:33.898Z,0
2017-11-15T16:44:44.117Z,0
2017-11-15T16:45:54.005Z,0
2017-11-15T16:47:04.193Z,0
2017-11-15T16:48:14.360Z,0
2017-11-15T16:49:24.519Z,0
2017-11-15T16:50:34.676Z,0